Time;durP1;ratioP1;P1;durP2;ratioP2;P2;SDS_P1;SDS_P2;PMS_P1;PMS_P2;Temp;Humidity;BMP_temperature;BMP_pressure;BME280_temperature;BME280_humidity;BME280_pressure;Samples;Min_cycle;Max_cycle;Signal;HPM_P1;HPM_P2
2021/04/12 00:02:05;;;;;;;7.80;3.28;;;;;;;;;;5143858;27;20043;-72
2021/04/12 00:04:48;;;;;;;9.57;3.22;;;;;;;;;;5144682;27;20050;-72
2021/04/12 00:07:33;;;;;;;7.90;3.13;;;;;;;;;;5144046;27;20494;-72
2021/04/12 00:10:05;;;;;;;11.45;3.72;;;;;;;;;;5144040;27;20031;-72
2021/04/12 00:12:44;;;;;;;8.00;3.10;;;;;;;;;;5143208;27;20034;-72
2021/04/12 00:15:23;;;;;;;10.20;3.70;;;;;;;;;;5143185;27;20067;-72
2021/04/12 00:17:50;;;;;;;9.25;2.88;;;;;;;;;;5145099;27;20093;-72
2021/04/12 00:20:28;;;;;;;12.80;3.65;;;;;;;;;;5142083;27;20053;-72
2021/04/12 00:23:00;;;;;;;8.93;3.10;;;;;;;;;;5147104;27;20031;-72
2021/04/12 00:25:32;;;;;;;9.35;4.18;;;;;;;;;;5143120;27;20083;-72
2021/04/12 00:28:01;;;;;;;7.13;3.38;;;;;;;;;;5149482;27;20038;-72
2021/04/12 00:30:30;;;;;;;7.07;3.35;;;;;;;;;;5150615;27;20381;-72
2021/04/12 00:32:59;;;;;;;9.25;3.60;;;;;;;;;;5147191;27;20039;-72
2021/04/12 00:35:39;;;;;;;10.15;3.70;;;;;;;;;;5145653;27;20191;-72
2021/04/12 00:38:43;;;;;;;9.18;4.28;;;;;;;;;;5136633;27;20042;-72
2021/04/12 00:41:12;;;;;;;7.95;3.55;;;;;;;;;;5063431;28;20037;-72
2021/04/12 00:43:46;;;;;;;11.02;3.90;;;;;;;;;;5068017;28;20073;-70
2021/04/12 00:46:13;;;;;;;8.25;3.80;;;;;;;;;;5106058;27;20115;-71
2021/04/12 00:48:49;;;;;;;9.25;3.38;;;;;;;;;;5128416;27;20046;-70
2021/04/12 00:51:35;;;;;;;13.48;4.10;;;;;;;;;;5127452;27;20382;-71
2021/04/12 00:54:24;;;;;;;10.02;4.85;;;;;;;;;;5126265;27;20035;-71
2021/04/12 00:57:00;;;;;;;14.60;4.45;;;;;;;;;;5145299;27;20070;-71
2021/04/12 00:59:39;;;;;;;8.45;4.43;;;;;;;;;;5129530;27;20062;-71
2021/04/12 01:02:23;;;;;;;7.78;3.50;;;;;;;;;;5142606;27;20054;-71
2021/04/12 01:04:49;;;;;;;;;;;;;;;;;;5144031;27;20034;-71
2021/04/12 01:07:36;;;;;;;9.27;4.00;;;;;;;;;;5146344;27;19964;-71
2021/04/12 01:10:02;;;;;;;12.23;4.47;;;;;;;;;;5142662;27;20083;-72
2021/04/12 01:12:40;;;;;;;13.68;4.65;;;;;;;;;;5141201;27;20121;-71
2021/04/12 01:15:07;;;;;;;9.65;3.92;;;;;;;;;;5142585;27;20382;-71
2021/04/12 01:17:52;;;;;;;15.07;4.60;;;;;;;;;;5145935;27;20042;-71
2021/04/12 01:20:36;;;;;;;8.10;4.45;;;;;;;;;;5147120;27;20104;-72
2021/04/12 01:23:02;;;;;;;9.25;4.38;;;;;;;;;;5145979;27;20483;-71
2021/04/12 01:25:47;;;;;;;12.88;4.60;;;;;;;;;;5139788;27;20039;-71
2021/04/12 01:28:32;;;;;;;16.83;4.22;;;;;;;;;;5142644;27;20066;-71
2021/04/12 01:31:07;;;;;;;10.98;3.70;;;;;;;;;;5145613;27;20041;-71
2021/04/12 01:33:36;;;;;;;7.70;3.50;;;;;;;;;;5141544;27;20051;-71
2021/04/12 01:36:20;;;;;;;13.60;4.30;;;;;;;;;;5139387;27;20037;-72
2021/04/12 01:39:07;;;;;;;11.35;4.43;;;;;;;;;;5125384;27;20055;-71
2021/04/12 01:41:51;;;;;;;10.27;3.42;;;;;;;;;;5146669;27;20038;-71
2021/04/12 01:44:28;;;;;;;8.90;3.50;;;;;;;;;;5145335;27;20046;-71
2021/04/12 01:47:05;;;;;;;14.88;4.45;;;;;;;;;;5143963;27;20063;-71
2021/04/12 01:49:53;;;;;;;9.70;4.10;;;;;;;;;;5135787;27;20526;-71
2021/04/12 01:52:43;;;;;;;7.80;3.78;;;;;;;;;;5124517;27;20044;-71
2021/04/12 01:55:09;;;;;;;9.55;3.60;;;;;;;;;;5145460;27;20366;-72
2021/04/12 01:57:51;;;;;;;9.32;3.55;;;;;;;;;;5143434;27;20035;-71
2021/04/12 02:00:17;;;;;;;9.82;3.13;;;;;;;;;;5144399;27;20129;-71
2021/04/12 02:02:51;;;;;;;6.70;3.38;;;;;;;;;;5137959;27;20122;-71
2021/04/12 02:05:26;;;;;;;7.53;3.55;;;;;;;;;;5143968;27;20208;-71
2021/04/12 02:08:15;;;;;;;9.02;3.72;;;;;;;;;;5149831;27;20126;-71
2021/04/12 02:10:44;;;;;;;15.07;3.70;;;;;;;;;;5145835;27;20047;-71
2021/04/12 02:13:16;;;;;;;7.85;2.90;;;;;;;;;;5124709;27;20122;-72
2021/04/12 02:15:49;;;;;;;6.57;3.40;;;;;;;;;;5144912;27;20046;-71
2021/04/12 02:18:39;;;;;;;12.73;3.25;;;;;;;;;;5148499;27;20343;-72
2021/04/12 02:21:05;;;;;;;6.68;3.22;;;;;;;;;;5130165;27;20054;-71
2021/04/12 02:23:43;;;;;;;7.82;3.72;;;;;;;;;;5147831;27;20039;-71
2021/04/12 02:26:13;;;;;;;10.80;3.55;;;;;;;;;;5143306;27;20039;-71
2021/04/12 02:28:43;;;;;;;7.90;2.92;;;;;;;;;;5143213;27;20042;-71
2021/04/12 02:31:21;;;;;;;8.43;2.80;;;;;;;;;;5140495;27;20047;-72
2021/04/12 02:34:06;;;;;;;13.98;2.88;;;;;;;;;;5147372;27;20486;-72
2021/04/12 02:36:32;;;;;;;;;;;;;;;;;;5145982;27;20079;-72
2021/04/12 02:39:10;;;;;;;4.57;2.33;;;;;;;;;;5152663;27;19931;-71
2021/04/12 02:41:45;;;;;;;9.65;2.88;;;;;;;;;;5146149;27;20043;-72
2021/04/12 02:44:30;;;;;;;9.40;3.00;;;;;;;;;;5146469;27;20107;-72
2021/04/12 02:47:08;;;;;;;7.75;2.70;;;;;;;;;;5148404;27;20488;-72
2021/04/12 02:49:53;;;;;;;9.63;2.83;;;;;;;;;;5124493;27;20133;-72
2021/04/12 02:52:23;;;;;;;8.38;3.00;;;;;;;;;;5144578;27;20043;-72
2021/04/12 02:55:21;;;;;;;10.85;3.40;;;;;;;;;;5147203;27;20034;-72
2021/04/12 02:58:06;;;;;;;10.43;2.85;;;;;;;;;;5098555;27;20051;-72
2021/04/12 03:00:32;;;;;;;9.05;2.53;;;;;;;;;;5144117;27;20039;-71
2021/04/12 03:03:09;;;;;;;7.80;2.67;;;;;;;;;;5144832;27;20043;-72
2021/04/12 03:05:38;;;;;;;8.75;2.50;;;;;;;;;;5149337;27;20476;-72
2021/04/12 03:08:04;;;;;;;5.70;2.55;;;;;;;;;;5146610;27;20413;-72
2021/04/12 03:10:30;;;;;;;9.65;2.58;;;;;;;;;;5149457;27;20370;-72
2021/04/12 03:13:05;;;;;;;6.97;2.88;;;;;;;;;;5150901;27;20039;-72
2021/04/12 03:15:50;;;;;;;11.15;2.85;;;;;;;;;;5128028;27;20039;-72
2021/04/12 03:18:16;;;;;;;;;;;;;;;;;;5146181;27;20522;-72
2021/04/12 03:21:01;;;;;;;13.15;2.72;;;;;;;;;;5123926;27;19919;-72
2021/04/12 03:23:43;;;;;;;11.85;3.08;;;;;;;;;;5146970;27;20114;-72
2021/04/12 03:26:22;;;;;;;5.28;2.30;;;;;;;;;;5151159;27;20045;-72
2021/04/12 03:28:52;;;;;;;6.32;2.90;;;;;;;;;;5128725;27;20142;-72
2021/04/12 03:31:24;;;;;;;7.53;3.13;;;;;;;;;;5147932;27;20129;-72
2021/04/12 03:34:13;;;;;;;10.73;2.85;;;;;;;;;;5143743;27;20199;-71
2021/04/12 03:36:57;;;;;;;8.10;2.63;;;;;;;;;;5145533;27;20038;-72
2021/04/12 03:39:27;;;;;;;7.40;2.75;;;;;;;;;;5125992;27;20076;-72
2021/04/12 03:42:16;;;;;;;8.07;3.38;;;;;;;;;;5147871;27;20039;-72
2021/04/12 03:44:46;;;;;;;10.52;3.25;;;;;;;;;;5117904;27;20454;-72
2021/04/12 03:47:31;;;;;;;6.68;3.00;;;;;;;;;;5149940;27;20545;-71
2021/04/12 03:49:57;;;;;;;9.70;3.53;;;;;;;;;;5147227;27;20501;-71
2021/04/12 03:52:23;;;;;;;5.50;2.78;;;;;;;;;;5144384;27;20042;-72
2021/04/12 03:54:55;;;;;;;8.18;3.30;;;;;;;;;;5147462;27;21513;-72
2021/04/12 03:57:34;;;;;;;7.13;2.97;;;;;;;;;;5126045;27;20063;-72
2021/04/12 04:00:10;;;;;;;9.18;3.17;;;;;;;;;;5138063;27;20039;-71
2021/04/12 04:02:45;;;;;;;11.27;3.05;;;;;;;;;;5144157;27;20058;-72
2021/04/12 04:05:28;;;;;;;8.00;3.22;;;;;;;;;;5150176;27;20398;-71
2021/04/12 04:08:05;;;;;;;8.82;2.45;;;;;;;;;;5137787;27;20510;-72
2021/04/12 04:10:45;;;;;;;6.22;2.40;;;;;;;;;;5150761;27;20090;-72
2021/04/12 04:13:30;;;;;;;11.20;2.63;;;;;;;;;;5146654;27;20046;-71
2021/04/12 04:15:56;;;;;;;6.20;2.35;;;;;;;;;;5144936;27;20135;-72
2021/04/12 04:18:32;;;;;;;8.85;2.70;;;;;;;;;;5145589;27;20038;-72
2021/04/12 04:21:07;;;;;;;8.02;2.67;;;;;;;;;;5129620;27;20051;-71
2021/04/12 04:23:52;;;;;;;10.82;2.90;;;;;;;;;;5124808;27;20049;-72
2021/04/12 04:26:33;;;;;;;8.27;2.70;;;;;;;;;;5143933;27;20506;-72
2021/04/12 04:29:22;;;;;;;7.82;2.20;;;;;;;;;;5146780;27;20466;-71
2021/04/12 04:31:56;;;;;;;6.40;1.98;;;;;;;;;;5145542;27;20521;-71
2021/04/12 04:34:22;;;;;;;5.55;2.50;;;;;;;;;;5145044;27;20027;-73
2021/04/12 04:36:55;;;;;;;4.93;2.53;;;;;;;;;;5125679;27;20096;-71
2021/04/12 04:39:40;;;;;;;8.40;2.15;;;;;;;;;;5146870;27;20053;-72
2021/04/12 04:42:26;;;;;;;9.50;2.40;;;;;;;;;;5141848;27;20031;-72
2021/04/12 04:44:55;;;;;;;10.43;2.17;;;;;;;;;;5124875;27;20111;-72
2021/04/12 04:47:27;;;;;;;7.22;1.90;;;;;;;;;;5146339;27;20054;-71
2021/04/12 04:49:53;;;;;;;9.02;2.38;;;;;;;;;;5141917;27;20054;-72
2021/04/12 04:52:38;;;;;;;10.27;3.25;;;;;;;;;;5148913;27;20049;-72
2021/04/12 04:55:23;;;;;;;7.50;3.10;;;;;;;;;;5146551;27;20626;-72
2021/04/12 04:58:00;;;;;;;12.02;3.17;;;;;;;;;;5127847;27;20070;-73
2021/04/12 05:00:33;;;;;;;5.82;2.75;;;;;;;;;;5138608;27;20432;-71
2021/04/12 05:03:06;;;;;;;8.48;3.20;;;;;;;;;;5140922;27;20039;-70
2021/04/12 05:05:35;;;;;;;10.15;2.63;;;;;;;;;;5143168;27;20035;-71
2021/04/12 05:08:01;;;;;;;5.82;2.70;;;;;;;;;;5146141;27;20095;-71
2021/04/12 05:10:42;;;;;;;5.88;2.20;;;;;;;;;;5143533;27;20070;-71
2021/04/12 05:13:12;;;;;;;6.97;2.40;;;;;;;;;;5144307;27;20087;-72
2021/04/12 05:15:47;;;;;;;3.85;2.25;;;;;;;;;;5143511;27;20091;-71
2021/04/12 05:18:13;;;;;;;7.85;2.85;;;;;;;;;;5144555;27;20074;-71
2021/04/12 05:20:58;;;;;;;9.48;2.92;;;;;;;;;;5146652;27;20031;-69
2021/04/12 05:23:43;;;;;;;5.07;2.63;;;;;;;;;;5142994;27;20426;-70
2021/04/12 05:26:28;;;;;;;8.30;2.22;;;;;;;;;;5143249;27;20035;-71
2021/04/12 05:28:57;;;;;;;5.97;2.10;;;;;;;;;;5123760;27;20089;-71
2021/04/12 05:31:42;;;;;;;3.88;1.90;;;;;;;;;;5110711;27;20043;-70
2021/04/12 05:34:11;;;;;;;6.30;1.50;;;;;;;;;;5148129;27;20485;-71
2021/04/12 05:36:40;;;;;;;7.63;1.50;;;;;;;;;;5150332;27;20038;-71
2021/04/12 05:39:13;;;;;;;6.30;1.73;;;;;;;;;;5131300;27;20055;-72
2021/04/12 05:41:39;;;;;;;3.88;1.70;;;;;;;;;;5114026;27;20035;-71
2021/04/12 05:44:24;;;;;;;6.15;1.73;;;;;;;;;;5150602;27;20126;-71
2021/04/12 05:47:09;;;;;;;3.58;1.30;;;;;;;;;;5152972;27;20107;-71
2021/04/12 05:49:45;;;;;;;5.57;1.40;;;;;;;;;;5138272;27;20059;-71
2021/04/12 05:52:17;;;;;;;7.05;1.25;;;;;;;;;;5151134;27;20485;-73
2021/04/12 05:54:49;;;;;;;6.50;1.20;;;;;;;;;;5142476;27;20370;-71
2021/04/12 05:57:25;;;;;;;4.78;1.13;;;;;;;;;;5151881;27;20035;-72
2021/04/12 06:00:10;;;;;;;5.53;1.20;;;;;;;;;;5149470;27;20031;-73
2021/04/12 06:02:36;;;;;;;4.93;0.90;;;;;;;;;;5104326;27;20078;-71
2021/04/12 06:05:38;;;;;;;4.50;0.98;;;;;;;;;;5125261;27;20130;-73
2021/04/12 06:08:07;;;;;;;4.20;1.05;;;;;;;;;;5076261;28;20040;-73
2021/04/12 06:10:44;;;;;;;6.75;1.40;;;;;;;;;;5117082;27;20047;-73
2021/04/12 06:13:29;;;;;;;3.65;1.05;;;;;;;;;;5143522;27;20482;-73
2021/04/12 06:16:07;;;;;;;3.55;1.15;;;;;;;;;;5123910;27;20046;-71
2021/04/12 06:18:36;;;;;;;6.95;1.20;;;;;;;;;;5142665;27;20104;-72
2021/04/12 06:21:21;;;;;;;5.65;1.02;;;;;;;;;;5143465;27;20041;-73
2021/04/12 06:23:58;;;;;;;3.35;1.10;;;;;;;;;;5142901;27;20042;-73
2021/04/12 06:26:42;;;;;;;4.43;0.95;;;;;;;;;;5142002;27;20171;-72
2021/04/12 06:29:28;;;;;;;3.97;1.17;;;;;;;;;;5141554;27;20042;-72
2021/04/12 06:32:06;;;;;;;6.13;1.08;;;;;;;;;;5124330;27;20362;-72
2021/04/12 06:34:38;;;;;;;7.65;1.20;;;;;;;;;;5141408;27;20035;-74
2021/04/12 06:37:23;;;;;;;3.47;1.00;;;;;;;;;;5123833;27;20067;-72
2021/04/12 06:39:57;;;;;;;4.95;1.13;;;;;;;;;;5142028;27;20430;-72
2021/04/12 06:42:29;;;;;;;6.65;1.45;;;;;;;;;;5105395;27;20405;-73
2021/04/12 06:45:02;;;;;;;3.47;1.02;;;;;;;;;;5141320;27;20050;-72
2021/04/12 06:47:48;;;;;;;6.38;1.75;;;;;;;;;;5121853;27;20130;-72
2021/04/12 06:50:32;;;;;;;2.72;1.10;;;;;;;;;;5143747;27;20552;-73
2021/04/12 06:53:05;;;;;;;4.13;1.25;;;;;;;;;;5144089;27;20106;-72
2021/04/12 06:55:58;;;;;;;4.43;1.17;;;;;;;;;;5145447;27;20054;-72
2021/04/12 06:58:27;;;;;;;8.23;0.70;;;;;;;;;;5130856;27;20516;-72
2021/04/12 07:00:59;;;;;;;3.95;1.10;;;;;;;;;;5140113;27;20330;-72
2021/04/12 07:03:56;;;;;;;4.72;0.90;;;;;;;;;;5123181;27;20074;-72
2021/04/12 07:06:41;;;;;;;6.60;0.98;;;;;;;;;;5142816;27;20046;-72
2021/04/12 07:09:26;;;;;;;7.10;1.20;;;;;;;;;;5140258;27;20039;-72
2021/04/12 07:11:58;;;;;;;4.00;1.05;;;;;;;;;;5121278;27;20034;-73
2021/04/12 07:14:49;;;;;;;4.03;1.25;;;;;;;;;;5141484;27;20448;-73
2021/04/12 07:17:21;;;;;;;3.53;0.90;;;;;;;;;;5143778;27;20056;-73
2021/04/12 07:20:02;;;;;;;2.58;0.80;;;;;;;;;;5141765;27;20162;-72
2021/04/12 07:22:28;;;;;;;4.68;1.40;;;;;;;;;;5121816;27;20485;-72
2021/04/12 07:25:04;;;;;;;7.15;1.20;;;;;;;;;;5123895;27;20094;-72
2021/04/12 07:27:33;;;;;;;4.00;0.82;;;;;;;;;;5145410;27;20035;-72
2021/04/12 07:30:18;;;;;;;3.53;0.90;;;;;;;;;;5126445;27;20099;-72
2021/04/12 07:33:03;;;;;;;4.18;0.90;;;;;;;;;;5143327;27;20520;-72
2021/04/12 07:35:44;;;;;;;4.07;0.95;;;;;;;;;;5125681;27;20054;-72
2021/04/12 07:38:13;;;;;;;5.15;0.85;;;;;;;;;;5144252;27;20039;-71
2021/04/12 07:40:58;;;;;;;4.70;1.00;;;;;;;;;;5124232;27;20150;-70
2021/04/12 07:43:42;;;;;;;4.78;0.90;;;;;;;;;;5148637;27;20182;-70
2021/04/12 07:46:14;;;;;;;5.47;0.95;;;;;;;;;;5146071;27;20045;-69
2021/04/12 07:48:49;;;;;;;6.35;1.33;;;;;;;;;;5145381;27;20039;-73
2021/04/12 07:51:21;;;;;;;7.85;1.23;;;;;;;;;;5131430;27;20434;-71
2021/04/12 07:54:06;;;;;;;3.65;1.17;;;;;;;;;;5149354;27;20043;-70
2021/04/12 07:56:32;;;;;;;7.35;1.00;;;;;;;;;;5125751;27;20121;-72
2021/04/12 07:59:17;;;;;;;5.05;0.90;;;;;;;;;;5127360;27;20045;-71
2021/04/12 08:01:46;;;;;;;5.38;1.10;;;;;;;;;;5143135;27;21063;-69
2021/04/12 08:04:12;;;;;;;6.38;1.20;;;;;;;;;;5144566;27;20081;-69
2021/04/12 08:06:45;;;;;;;6.05;1.20;;;;;;;;;;5144649;27;20087;-70
2021/04/12 08:09:14;;;;;;;6.40;1.02;;;;;;;;;;5145843;27;20496;-70
2021/04/12 08:11:59;;;;;;;7.03;0.80;;;;;;;;;;5144282;27;20446;-70
2021/04/12 08:14:43;;;;;;;6.30;0.70;;;;;;;;;;5143270;27;20034;-71
2021/04/12 08:17:38;;;;;;;6.43;1.00;;;;;;;;;;5146051;27;20039;-70
2021/04/12 08:20:23;;;;;;;6.90;0.82;;;;;;;;;;5144420;27;20042;-69
2021/04/12 08:23:07;;;;;;;10.13;1.00;;;;;;;;;;5148330;27;20334;-69
2021/04/12 08:25:36;;;;;;;5.78;1.42;;;;;;;;;;5151803;27;20042;-70
2021/04/12 08:28:02;;;;;;;6.75;1.30;;;;;;;;;;5151567;27;20713;-70
2021/04/12 08:30:29;;;;;;;7.15;1.48;;;;;;;;;;5143128;27;20109;-71
2021/04/12 08:33:04;;;;;;;3.47;0.73;;;;;;;;;;5145408;27;20059;-71
2021/04/12 08:35:30;;;;;;;5.18;0.85;;;;;;;;;;5144711;27;20090;-72
2021/04/12 08:38:15;;;;;;;1.88;0.65;;;;;;;;;;5145701;27;20050;-73
2021/04/12 08:40:59;;;;;;;6.05;0.77;;;;;;;;;;5146725;27;20331;-73
2021/04/12 08:43:40;;;;;;;2.78;0.52;;;;;;;;;;5145348;27;20046;-72
2021/04/12 08:46:34;;;;;;;6.78;0.80;;;;;;;;;;5143063;27;20121;-71
2021/04/12 08:49:10;;;;;;;3.10;0.60;;;;;;;;;;5144350;27;20045;-71
2021/04/12 08:51:55;;;;;;;5.45;0.93;;;;;;;;;;5143154;27;20141;-72
2021/04/12 08:54:30;;;;;;;5.40;0.73;;;;;;;;;;5142952;27;20039;-70
2021/04/12 08:57:11;;;;;;;3.75;0.65;;;;;;;;;;5142743;27;20094;-70
2021/04/12 08:59:40;;;;;;;3.63;0.68;;;;;;;;;;5139823;27;20514;-71
2021/04/12 09:02:35;;;;;;;6.40;0.98;;;;;;;;;;5143033;27;20512;-70
2021/04/12 09:05:07;;;;;;;4.35;0.93;;;;;;;;;;5126240;27;20110;-69
2021/04/12 09:07:52;;;;;;;6.10;0.98;;;;;;;;;;5141809;27;20034;-68
2021/04/12 09:10:27;;;;;;;4.03;0.70;;;;;;;;;;5144062;27;20042;-69
2021/04/12 09:13:09;;;;;;;7.18;1.00;;;;;;;;;;5134675;27;20039;-68
2021/04/12 09:15:54;;;;;;;5.63;0.90;;;;;;;;;;5146584;27;20570;-70
2021/04/12 09:18:38;;;;;;;4.45;1.08;;;;;;;;;;5134177;27;21189;-70
2021/04/12 09:21:05;;;;;;;;;;;;;;;;;;5141112;27;20042;-70
2021/04/12 09:23:41;;;;;;;4.93;0.90;;;;;;;;;;5122025;27;19927;-70
2021/04/12 09:26:27;;;;;;;9.57;1.33;;;;;;;;;;5142480;27;20171;-71
2021/04/12 09:29:14;;;;;;;7.45;1.20;;;;;;;;;;5127074;27;20050;-72
2021/04/12 09:31:43;;;;;;;4.65;1.02;;;;;;;;;;5143513;27;20042;-72
2021/04/12 09:34:37;;;;;;;4.13;1.23;;;;;;;;;;5143791;27;20536;-72
2021/04/12 09:37:32;;;;;;;8.20;1.85;;;;;;;;;;5137950;27;20540;-72
2021/04/12 09:39:58;;;;;;;4.25;1.00;;;;;;;;;;5125400;27;20038;-71
2021/04/12 09:42:36;;;;;;;4.93;1.20;;;;;;;;;;5141661;27;20043;-72
2021/04/12 09:45:21;;;;;;;6.93;1.58;;;;;;;;;;5138338;27;20115;-72
2021/04/12 09:48:06;;;;;;;4.07;1.02;;;;;;;;;;5139991;27;20038;-72
2021/04/12 09:51:00;;;;;;;5.97;1.10;;;;;;;;;;5141162;27;20035;-72
2021/04/12 09:53:26;;;;;;;4.38;0.60;;;;;;;;;;5142793;27;20095;-71
2021/04/12 09:55:55;;;;;;;5.45;1.05;;;;;;;;;;5142480;27;20037;-71
2021/04/12 09:58:21;;;;;;;3.13;0.80;;;;;;;;;;5144472;27;20050;-71
2021/04/12 10:01:03;;;;;;;3.80;1.00;;;;;;;;;;5140982;27;20034;-73
2021/04/12 10:03:32;;;;;;;3.80;0.68;;;;;;;;;;5125835;27;20031;-71
2021/04/12 10:06:14;;;;;;;5.82;1.10;;;;;;;;;;5142360;27;20063;-74
2021/04/12 10:08:46;;;;;;;4.88;0.70;;;;;;;;;;5119079;27;20038;-71
2021/04/12 10:11:35;;;;;;;2.85;0.50;;;;;;;;;;5147191;27;20174;-72
2021/04/12 10:14:14;;;;;;;3.08;0.50;;;;;;;;;;5130952;27;20110;-72
2021/04/12 10:16:41;;;;;;;1.55;0.50;;;;;;;;;;5116187;27;20465;-73
2021/04/12 10:19:13;;;;;;;3.58;0.52;;;;;;;;;;5151153;27;20497;-71
2021/04/12 10:21:40;;;;;;;2.15;0.50;;;;;;;;;;5150349;27;20100;-71
2021/04/12 10:24:27;;;;;;;3.85;0.50;;;;;;;;;;5131125;27;20042;-72
2021/04/12 10:27:01;;;;;;;4.68;0.93;;;;;;;;;;5150837;27;20038;-74
2021/04/12 10:29:37;;;;;;;1.90;0.63;;;;;;;;;;5133192;27;20507;-70
2021/04/12 10:32:10;;;;;;;4.05;0.85;;;;;;;;;;5143893;27;20371;-74
2021/04/12 10:34:41;;;;;;;3.33;0.60;;;;;;;;;;5131676;27;20038;-70
2021/04/12 10:37:09;;;;;;;6.30;0.77;;;;;;;;;;5148579;27;20043;-73
2021/04/12 10:39:39;;;;;;;2.20;0.57;;;;;;;;;;5112697;27;20608;-73
2021/04/12 10:42:25;;;;;;;3.50;1.00;;;;;;;;;;5145007;27;20474;-72
2021/04/12 10:45:00;;;;;;;2.97;0.68;;;;;;;;;;5095617;27;20067;-73
2021/04/12 10:47:44;;;;;;;6.38;0.50;;;;;;;;;;5124637;27;20059;-71
2021/04/12 10:50:22;;;;;;;4.07;0.70;;;;;;;;;;5121798;27;20052;-71
2021/04/12 10:52:55;;;;;;;3.67;0.60;;;;;;;;;;5124118;27;20506;-70
2021/04/12 10:55:23;;;;;;;4.25;0.73;;;;;;;;;;5149260;27;20059;-71
2021/04/12 10:58:08;;;;;;;3.42;0.65;;;;;;;;;;5141331;27;20035;-71
2021/04/12 11:00:41;;;;;;;3.15;0.80;;;;;;;;;;5147133;27;20043;-71
2021/04/12 11:03:13;;;;;;;4.17;0.60;;;;;;;;;;5148713;27;20055;-71
2021/04/12 11:05:40;;;;;;;2.42;0.57;;;;;;;;;;5144352;27;20307;-71
2021/04/12 11:08:18;;;;;;;5.05;0.68;;;;;;;;;;5145033;27;20069;-71
2021/04/12 11:10:54;;;;;;;3.80;0.50;;;;;;;;;;5152293;27;20041;-71
2021/04/12 11:13:20;;;;;;;3.72;0.60;;;;;;;;;;5146605;27;20358;-71
2021/04/12 11:16:03;;;;;;;5.03;0.75;;;;;;;;;;5141542;27;20046;-69
2021/04/12 11:18:35;;;;;;;3.40;1.10;;;;;;;;;;5146877;27;20038;-69
2021/04/12 11:21:07;;;;;;;4.05;0.70;;;;;;;;;;5128948;27;20038;-70
2021/04/12 11:23:40;;;;;;;2.22;0.73;;;;;;;;;;5149663;27;20733;-70
2021/04/12 11:26:27;;;;;;;4.22;0.80;;;;;;;;;;5146752;27;20046;-72
2021/04/12 11:28:53;;;;;;;6.68;0.85;;;;;;;;;;5126053;27;20410;-70
2021/04/12 11:31:29;;;;;;;4.57;0.73;;;;;;;;;;5145430;27;20299;-69
2021/04/12 11:34:09;;;;;;;2.45;0.50;;;;;;;;;;5148132;27;20062;-69
2021/04/12 11:36:54;;;;;;;2.10;0.70;;;;;;;;;;5146378;27;20045;-70
2021/04/12 11:39:22;;;;;;;1.42;0.40;;;;;;;;;;5147893;27;20566;-71
2021/04/12 11:41:54;;;;;;;9.07;0.95;;;;;;;;;;5145145;27;20502;-70
2021/04/12 11:44:26;;;;;;;4.53;0.60;;;;;;;;;;5124710;27;20047;-69
2021/04/12 11:47:06;;;;;;;4.07;1.02;;;;;;;;;;5148445;27;20129;-69
2021/04/12 11:49:42;;;;;;;2.95;0.60;;;;;;;;;;5143959;27;20453;-68
2021/04/12 11:52:25;;;;;;;1.55;0.40;;;;;;;;;;5142623;27;20152;-69
2021/04/12 11:55:10;;;;;;;3.25;0.63;;;;;;;;;;5144054;27;20037;-69
2021/04/12 11:57:46;;;;;;;4.40;0.50;;;;;;;;;;5144766;27;20042;-69
2021/04/12 12:00:18;;;;;;;3.88;0.75;;;;;;;;;;5125977;27;20043;-69
2021/04/12 12:02:53;;;;;;;3.47;0.60;;;;;;;;;;5143850;27;20047;-70
2021/04/12 12:05:19;;;;;;;3.13;0.65;;;;;;;;;;5127097;27;20031;-69
2021/04/12 12:07:56;;;;;;;5.78;1.08;;;;;;;;;;5145078;27;20657;-69
2021/04/12 12:10:28;;;;;;;3.25;0.90;;;;;;;;;;5151052;27;20043;-68
2021/04/12 12:12:54;;;;;;;2.67;0.75;;;;;;;;;;5147032;27;20130;-70
2021/04/12 12:15:38;;;;;;;5.35;0.63;;;;;;;;;;5151442;27;20043;-68
2021/04/12 12:18:05;;;;;;;;;;;;;;;;;;5146964;27;20169;-67
2021/04/12 12:20:47;;;;;;;4.07;1.08;;;;;;;;;;5149314;27;20312;-68
2021/04/12 12:23:34;;;;;;;4.88;0.95;;;;;;;;;;5148512;27;20698;-71
2021/04/12 12:26:02;;;;;;;4.68;0.73;;;;;;;;;;5148560;27;20481;-72
2021/04/12 12:28:47;;;;;;;4.13;0.90;;;;;;;;;;5112532;27;20397;-70
2021/04/12 12:31:35;;;;;;;4.25;1.02;;;;;;;;;;5148817;27;20466;-70
2021/04/12 12:34:09;;;;;;;5.10;1.13;;;;;;;;;;5150423;27;20042;-69
2021/04/12 12:36:46;;;;;;;3.03;0.77;;;;;;;;;;5155282;27;20039;-74
2021/04/12 12:39:12;;;;;;;5.15;0.52;;;;;;;;;;5126424;27;20054;-75
2021/04/12 12:41:43;;;;;;;5.38;0.80;;;;;;;;;;5128653;27;20045;-71
2021/04/12 12:44:11;;;;;;;4.00;1.02;;;;;;;;;;5145546;27;20055;-71
2021/04/12 12:46:40;;;;;;;3.53;0.60;;;;;;;;;;5152215;27;20046;-71
2021/04/12 12:49:15;;;;;;;5.28;0.55;;;;;;;;;;5147123;27;20058;-69
2021/04/12 12:51:47;;;;;;;5.25;0.80;;;;;;;;;;5153469;27;20119;-69
2021/04/12 12:54:26;;;;;;;2.35;0.55;;;;;;;;;;5151759;27;20395;-69
2021/04/12 12:56:52;;;;;;;2.65;0.50;;;;;;;;;;5153214;27;20057;-72
2021/04/12 12:59:22;;;;;;;6.75;0.82;;;;;;;;;;5144789;27;20035;-70
2021/04/12 13:01:48;;;;;;;6.68;0.50;;;;;;;;;;5142620;27;20062;-73
2021/04/12 13:04:15;;;;;;;2.38;0.40;;;;;;;;;;5137219;27;20051;-73
2021/04/12 13:06:41;;;;;;;8.90;0.73;;;;;;;;;;5141380;27;20465;-72
2021/04/12 13:09:28;;;;;;;4.93;1.35;;;;;;;;;;5139808;27;20047;-73
2021/04/12 13:11:58;;;;;;;4.95;0.70;;;;;;;;;;5119544;27;20039;-73
2021/04/12 13:14:33;;;;;;;4.70;0.63;;;;;;;;;;5134335;27;20598;-73
2021/04/12 13:17:00;;;;;;;4.78;1.60;;;;;;;;;;5141092;27;20038;-73
2021/04/12 13:19:26;;;;;;;5.57;0.70;;;;;;;;;;5142177;27;20462;-74
2021/04/12 13:22:00;;;;;;;1.88;0.40;;;;;;;;;;5138838;27;20049;-73
2021/04/12 13:24:33;;;;;;;3.72;0.50;;;;;;;;;;5139858;27;20482;-73
2021/04/12 13:27:03;;;;;;;3.97;0.88;;;;;;;;;;5138185;27;20113;-73
2021/04/12 13:29:32;;;;;;;3.45;0.70;;;;;;;;;;5139736;27;20083;-73
2021/04/12 13:32:04;;;;;;;3.13;0.95;;;;;;;;;;5138577;27;20046;-72
2021/04/12 13:34:50;;;;;;;2.03;0.47;;;;;;;;;;5122084;27;20069;-73
2021/04/12 13:37:19;;;;;;;6.43;0.55;;;;;;;;;;5138629;27;20035;-73
2021/04/12 13:39:46;;;;;;;3.03;0.90;;;;;;;;;;5138453;27;20051;-73
2021/04/12 13:42:17;;;;;;;3.83;0.77;;;;;;;;;;5138157;27;20118;-75
2021/04/12 13:44:45;;;;;;;2.40;0.60;;;;;;;;;;5139303;27;20073;-71
2021/04/12 13:47:16;;;;;;;4.35;0.65;;;;;;;;;;5139294;27;20046;-71
2021/04/12 13:49:44;;;;;;;2.33;0.60;;;;;;;;;;5140486;27;20046;-71
2021/04/12 13:52:13;;;;;;;3.08;0.55;;;;;;;;;;5141221;27;20046;-72
2021/04/12 13:54:57;;;;;;;5.85;0.80;;;;;;;;;;5141505;27;20047;-72
2021/04/12 13:57:33;;;;;;;5.40;1.05;;;;;;;;;;5141959;27;20057;-72
2021/04/12 14:00:19;;;;;;;4.07;0.65;;;;;;;;;;5140840;27;20035;-72
2021/04/12 14:02:57;;;;;;;3.92;0.60;;;;;;;;;;5141118;27;20054;-73
2021/04/12 14:05:28;;;;;;;1.60;0.45;;;;;;;;;;5119303;27;20053;-73
2021/04/12 14:08:15;;;;;;;4.10;0.70;;;;;;;;;;5118610;27;20482;-73
2021/04/12 14:10:59;;;;;;;2.00;0.50;;;;;;;;;;5127559;27;20074;-73
2021/04/12 14:13:27;;;;;;;2.08;0.60;;;;;;;;;;5139881;27;20042;-73
2021/04/12 14:16:08;;;;;;;1.65;0.40;;;;;;;;;;5139479;27;20719;-73
2021/04/12 14:18:34;;;;;;;1.17;0.43;;;;;;;;;;5142511;27;20039;-73
2021/04/12 14:21:05;;;;;;;1.48;0.30;;;;;;;;;;5141354;27;20045;-72
2021/04/12 14:23:34;;;;;;;0.88;0.20;;;;;;;;;;5140384;27;20045;-73
2021/04/12 14:26:11;;;;;;;0.73;0.20;;;;;;;;;;5122699;27;20043;-75
2021/04/12 14:28:41;;;;;;;1.88;0.43;;;;;;;;;;5135685;27;20077;-75
2021/04/12 14:31:18;;;;;;;2.33;0.90;;;;;;;;;;5138063;27;20070;-74
2021/04/12 14:33:45;;;;;;;1.70;0.88;;;;;;;;;;5142990;27;20045;-73
2021/04/12 14:36:28;;;;;;;4.05;0.60;;;;;;;;;;5126378;27;20050;-73
2021/04/12 14:39:07;;;;;;;4.00;0.55;;;;;;;;;;5146068;27;20067;-80
2021/04/12 14:41:34;;;;;;;2.35;0.40;;;;;;;;;;5145081;27;20742;-73
2021/04/12 14:44:13;;;;;;;3.10;0.68;;;;;;;;;;5140093;27;20047;-73
2021/04/12 14:46:49;;;;;;;2.95;0.40;;;;;;;;;;5142685;27;20030;-74
2021/04/12 14:49:16;;;;;;;2.80;0.40;;;;;;;;;;5141618;27;20054;-75
2021/04/12 14:52:01;;;;;;;4.68;0.68;;;;;;;;;;5142311;27;20446;-73
2021/04/12 14:54:36;;;;;;;2.53;0.57;;;;;;;;;;5144245;27;20046;-73
2021/04/12 14:57:34;;;;;;;3.70;0.60;;;;;;;;;;5143401;27;20026;-73
2021/04/12 15:00:13;;;;;;;5.40;0.50;;;;;;;;;;5093090;27;20046;-73
2021/04/12 15:02:47;;;;;;;3.25;0.50;;;;;;;;;;5139618;27;20061;-73
2021/04/12 15:05:16;;;;;;;2.65;0.40;;;;;;;;;;5144253;27;20050;-73
2021/04/12 15:07:44;;;;;;;2.22;0.47;;;;;;;;;;5143338;27;20041;-75
2021/04/12 15:10:18;;;;;;;3.92;0.25;;;;;;;;;;5126630;27;20098;-74
2021/04/12 15:12:49;;;;;;;2.05;0.45;;;;;;;;;;5138796;27;20060;-72
2021/04/12 15:15:42;;;;;;;2.63;0.50;;;;;;;;;;5120637;27;20073;-73
2021/04/12 15:18:10;;;;;;;2.55;0.50;;;;;;;;;;5115947;27;20433;-73
2021/04/12 15:20:42;;;;;;;1.55;0.40;;;;;;;;;;5144240;27;20031;-74
2021/04/12 15:23:08;;;;;;;4.38;1.23;;;;;;;;;;5144165;27;20400;-73
2021/04/12 15:25:36;;;;;;;3.58;0.68;;;;;;;;;;5144921;27;20062;-73
2021/04/12 15:28:10;;;;;;;4.95;0.85;;;;;;;;;;5124553;27;20039;-73
2021/04/12 15:30:38;;;;;;;5.25;0.52;;;;;;;;;;5141914;27;20475;-73
2021/04/12 15:33:16;;;;;;;3.03;0.60;;;;;;;;;;5126093;27;20063;-73
2021/04/12 15:35:47;;;;;;;2.55;0.70;;;;;;;;;;5143223;27;20039;-73
2021/04/12 15:38:21;;;;;;;2.75;0.60;;;;;;;;;;5144225;27;20054;-73